Portada
METAR-TAF:

METAR-TAF

Aeroports :

Comiso, Itàlia

latitud: 36-59-30N, longitud: 14-36-25E, altitud: 190 m

Observació

L'informe es va fer fa 1 hora i 4 minuts, a les 11:50 UTC
Vent 3 kt del Oest, variant entre Oest i Nord-Oest
Temperatura 24°C
Humitat 69%
Pressió 1017 hPa
Visibilitat 10 km o més
Escasses núvols a una alçada de 3500 ft

METAR: LICB 161150Z 28003KT 260V320 9999 FEW035 24/18 Q1017

Hora: 14:54 (12:54 UTC)

Pronòstic

L'informe es va fer fa 1 hora i 54 minuts, a les 11:00 UTC
Pronòstic vàlid del 16 a les 12 UTC al 16 a les 21 UTC
Vent 5 kt amb direcció variable
Visibilitat 10 km o més
Núvols disperses a una alçada de 2000 ft
Temporalment
l' 16 a les 14 UTC al 16 a les 18 UTC
pluja

TAF: LICB 161100Z 1612/1621 VRB05KT 9999 SCT020 TEMPO 1614/1618 RA

Observacions i pronòstics meteorològics de més de 4000 aeroports (METAR i TAF).

Les estacions disponibles són els punts grocs i vermells al mapa.

Posi el ratolí al punt desitjat per veure el nom de l'estació.

Feu clic per veure les observacions i els pronòstics meteorològics.

Per canviar el mapa: feu clic els botons verds amb una creu de color negre per apropar; al botó verd amb un guió per allunyar la imatge; o en les fletxes verdes per a mapes adjacents.


METAR-TAF: